Check time and date!

LGTT 251900Z 00000KT 9999 FEW025 05/05 Q1027 RMK SCT180
TAF LGTT 251000Z 2512/2521 VRB05KT 9999 FEW020
--------------------------------------
LGMG 251500Z 00000KT 9999 FEW025 14/06 Q1025 RMK SCT180
TAF LGMG 251000Z 2512/2521 23010KT 9999 FEW020
--------------------------------------
LGTG 251950Z 00000KT 9999 FEW030 08/06 Q1026 RMK SCT180
--------------------------------------
LGEL 251950Z 00000KT 9999 FEW025 09/07 Q1026 RMK SCT180
TAF LGEL 251700Z 2518/2618 VRB05KT 9999 FEW020
--------------------------------------
LGAV 251920Z 30005KT 9999 FEW025 09/06 Q1027 RMK SCT180 NOSIG
TAF LGAV 251700Z 2518/2618 21012KT 9999 FEW020 BECMG 2601/2603 VRB05KT
--------------------------------------
LGAT 251930Z AUTO VRB02KT //// // ////// 10/08 Q1027 RE//
--------------------------------------
METAR LGAD 251950Z 00000KT 9999 BKN025 12/10 Q1027
METAR LGAV 251950Z 27004KT 9999 FEW025 08/05 Q1027 NOSIG
METAR LGBL 251950Z 25004KT CAVOK 05/03 Q1026
METAR LGEL 251950Z 00000KT 9999 FEW025 09/07 Q1026
METAR LGHI 251950Z 23003KT 9999 FEW020 BKN040 12/06 Q1027
METAR LGIO 251950Z AUTO VRB01KT //// // ////// 09/05 Q1027 RE//
METAR LGIR 251950Z 00000KT CAVOK 08/06 Q1028 NOSIG
METAR LGKL 251950Z AUTO VRB01KT //// // ////// 07/05 Q1027 RE//
METAR LGKO 251950Z 14004KT 9999 FEW030 10/01 Q1027
METAR LGKP 251920Z AUTO 20010KT //// // ////// 14/08 Q1028 RE//
METAR LGKR 251950Z 00000KT 7000 SCT007 SCT015 BKN025 11/09 Q1027 NOSIG
METAR LGKV 251950Z 05003KT 9999 FEW025 05/04 Q1025
METAR LGKZ 251950Z AUTO VRB02KT //// // ////// 04/M02 Q1025 RE//
METAR LGLM 251950Z 00000KT 9999 FEW025 07/04 Q1025
METAR LGLR 251950Z 20004KT CAVOK 03/02 Q1026 RMK SCT180 BLU
METAR LGPA 251950Z AUTO 27004KT //// // ////// 13/08 Q1028 RE//
METAR LGPZ 251950Z 00000KT 9999 FEW010 SCT020 11/09 Q1027
METAR LGRP 251950Z VRB02KT CAVOK 11/07 Q1028 NOSIG
METAR LGRX 251950Z 00000KT 9999 FEW020 09/09 Q1027
METAR LGSA 251950Z 00000KT CAVOK 09/08 Q1027
METAR LGSO 251950Z AUTO 22006KT //// // ////// 12/07 Q1027 RE//
METAR LGTG 251950Z 00000KT 9999 FEW030 08/06 Q1026 RMK SCT180 BLU
METAR LGTS 251950Z VRB03KT CAVOK 04/02 Q1025 NOSIG

--------------------------------------
TAF LGAD 252000Z 2521/2606 VRB03KT 9999 SCT025
TAF LGAL 251700Z 2518/2603 25015KT 9999 FEW020 SCT030 BECMG 2601/2603 26005KT
TAF LGAV 251700Z 2518/2618 21012KT 9999 FEW020 BECMG 2601/2603 VRB05KT
TAF LGBL 252000Z 2521/2606 24006KT 9999 FEW030
TAF LGEL 251700Z 2518/2618 VRB05KT 9999 FEW020
TAF LGHI 251700Z 2518/2603 20015KT 9999 FEW020
TAF LGIO 251700Z 2518/2603 VRB03KT 9999 BKN025 OVC070 PROB30 TEMPO 2518/2603 6000 RA
TAF LGIR 251700Z 2518/2618 19013KT 9999 FEW020 TEMPO 2606/2612 VRB05KT
TAF LGKC 251700Z 2518/2603 25015KT 9999 FEW020
TAF LGKF 251700Z 2518/2603 VRB05KT 9999 FEW015 SCT020 SCT070 BECMG 2522/2524 15010KT
TAF LGKL 252000Z 2521/2606 VRB03KT 8000 SCT030 PROB40 TEMPO 2603/2606 3000 BR SCT010
TAF LGKO 251700Z 2518/2618 VRB05KT 9999 FEW020 BECMG 2614/2616 15008KT
TAF LGKP 252000Z 2521/2606 23010KT 9999 FEW020
TAF LGKV 251700Z 2518/2618 VRB03KT 9999 FEW025 BECMG 2609/2611 SCT020 BKN080
TAF LGLM 252000Z 2521/2606 20008KT 9999 SCT025
TAF LGLR 252000Z 2521/2606 VRB03KT 9999 FEW030
TAF LGMK 251700Z 2518/2603 22015KT 9999 FEW018
TAF LGPZ 251700Z 2518/2618 VRB05KT 9999 FEW010 SCT025 BKN080 PROB30 TEMPO 2610/2618 5000 RA SCT015 BKN020 OVC080 BECMG 2522/2524 10012KT
TAF LGRP 251700Z 2518/2618 VRB05KT 9999 FEW018 BECMG 2610/2612 10008KT
TAF LGRX 252000Z 2521/2606 VRB03KT 8000 FEW008 SCT020
TAF LGSA 251700Z 2518/2618 VRB05KT 9999 FEW020
TAF LGSK 251700Z 2518/2603 24010KT 9999 FEW020
TAF LGSM 251700Z 2518/2603 VRB05KT 9999 FEW020 BECMG 2518/2520 15010KT
TAF LGSR 251700Z 2518/2618 23012KT 9999 FEW020 BECMG 2610/2612 13008KT
TAF LGST 251700Z 2518/2603 VRB05KT 9999 FEW020
TAF LGSY 252000Z 2521/2606 19008KT 9999 FEW020
TAF LGTG 252000Z 2521/2606 VRB03KT 9999 FEW030
TAF LGTL 252000Z 2521/2606 21008KT 9999 FEW020
TAF LGTS 251700Z 2518/2618 VRB03KT 9999 FEW030 PROB30 2604/2608 5000 BR SCT008
TAF LGZA 251700Z 2518/2603 VRB05KT 9999 FEW015 SCT020 SCT070 BECMG 2522/2524 16010KT